KANW

Ainsworth Regional Airport

Ainsworth, Nebraska, USA
METAR KANW 190655Z AUTO 24009KT 10SM CLR 00/M02 A2965 RMK AO2 T10011023
Observed Flight Rules
Dec-19 @ 06:55 UTC (45 minutes ago) Visual Flight Rules
Wind Visibility Clouds
240° at 9 knots 10 miles
  • Clear skies
Temperatures Readings
Current -0°C / 32°F
Dewpoint -2°C / 28°F
Humidity 87%
Altimeter 29.65" Hg
Pressure 1004 hPa
Elevation 789
METAR KANW 190655Z AUTO 24009KT 10SM CLR 00/M02 A2965 RMK AO2 T10011023
Observed Flight Rules
Dec-19 @ 06:55 UTC
(45 minutes ago)
VFR
Wind Visibility
240° at 9 knots 10 miles
Clouds
  • Clear skies
Temperature Dewpoint
-0°C / 32°F -2°C / 28°F
Humidity Altimeter Pressure
87% 29.65" Hg 1004 hPa